Time;durP1;ratioP1;P1;durP2;ratioP2;P2;SDS_P1;SDS_P2;PMS_P1;PMS_P2;Temp;Humidity;BMP_temperature;BMP_pressure;BME280_temperature;BME280_humidity;BME280_pressure;Samples;Min_cycle;Max_cycle;Signal;HPM_P1;HPM_P2
2021/12/06 00:02:23;;;;;;;0.45;0.45;;;;;;;6.53;68.01;101331.97;5056447;28;20120;-87
2021/12/06 00:04:50;;;;;;;0.17;0.17;;;;;;;6.52;68.38;101343.38;5056723;28;20029;-87
2021/12/06 00:07:21;;;;;;;0.82;0.82;;;;;;;6.55;68.21;101347.78;5056443;28;20036;-87
2021/12/06 00:09:48;;;;;;;0.10;0.10;;;;;;;6.55;68.58;101340.75;5052436;28;20380;-89
2021/12/06 00:12:15;;;;;;;0.20;0.20;;;;;;;6.53;68.42;101349.50;5053295;28;20041;-87
2021/12/06 00:14:42;;;;;;;0.20;0.20;;;;;;;6.56;68.45;101354.81;5042466;28;20034;-87
2021/12/06 00:17:11;;;;;;;0.35;0.35;;;;;;;6.56;68.77;101349.53;5041528;28;20491;-86
2021/12/06 00:19:39;;;;;;;0.20;0.20;;;;;;;6.57;68.69;101356.56;5043969;28;20395;-87
2021/12/06 00:22:10;;;;;;;0.10;0.10;;;;;;;6.58;68.59;101359.22;5046624;28;20478;-87
2021/12/06 00:24:37;;;;;;;0.20;0.20;;;;;;;6.58;68.76;101368.84;5046435;28;20503;-91
2021/12/06 00:27:04;;;;;;;0.10;0.10;;;;;;;6.60;68.50;101369.75;5044557;28;20079;-90
2021/12/06 00:29:40;;;;;;;0.20;0.20;;;;;;;6.67;68.61;101373.28;5045275;28;20424;-86
2021/12/06 00:32:06;;;;;;;0.95;0.95;;;;;;;6.61;68.77;101384.66;5041021;28;20033;-90
2021/12/06 00:34:35;;;;;;;0.20;0.20;;;;;;;6.59;68.61;101384.66;5043879;28;20029;-89
2021/12/06 00:37:17;;;;;;;0.38;0.38;;;;;;;6.61;68.76;101384.66;5047372;28;20026;-89
2021/12/06 00:39:47;;;;;;;0.20;0.20;;;;;;;6.59;68.54;101378.50;5041733;28;20021;-89
2021/12/06 00:42:14;;;;;;;0.80;0.80;;;;;;;6.57;68.70;101382.91;5048645;28;20037;-89
2021/12/06 00:44:41;;;;;;;0.15;0.15;;;;;;;6.53;68.91;101384.63;5040413;28;20032;-88
2021/12/06 00:47:07;;;;;;;0.77;0.77;;;;;;;6.53;68.80;101386.38;5046297;28;20488;-88
2021/12/06 00:49:33;;;;;;;0.20;0.20;;;;;;;6.53;69.26;101397.81;5044517;28;20036;-88
2021/12/06 00:52:00;;;;;;;0.95;0.95;;;;;;;6.56;69.08;101396.94;5043533;28;20127;-88
2021/12/06 00:54:26;;;;;;;0.32;0.32;;;;;;;6.58;68.94;101403.06;5041104;28;20029;-88
2021/12/06 00:56:53;;;;;;;0.10;0.10;;;;;;;6.58;69.14;101403.06;5038824;28;20029;-88
2021/12/06 00:59:19;;;;;;;0.25;0.25;;;;;;;6.65;69.26;101412.78;5037952;28;20045;-88
2021/12/06 01:01:45;;;;;;;0.20;0.20;;;;;;;6.69;69.52;101424.19;5039719;28;20552;-87
2021/12/06 01:04:12;;;;;;;0.10;0.10;;;;;;;6.72;69.10;101421.59;5050078;28;20040;-87
2021/12/06 01:06:38;;;;;;;0.10;0.10;;;;;;;6.77;69.42;101419.88;5049345;28;20021;-87
2021/12/06 01:09:05;;;;;;;0.20;0.20;;;;;;;6.79;69.47;101426.00;5051332;28;20032;-88
2021/12/06 01:11:31;;;;;;;0.20;0.20;;;;;;;6.80;69.54;101426.03;5046019;28;20082;-87
2021/12/06 01:13:57;;;;;;;0.20;0.20;;;;;;;6.84;69.26;101429.56;5037456;28;20037;-88
2021/12/06 01:16:25;;;;;;;0.10;0.10;;;;;;;6.85;69.49;101428.66;5039466;28;20025;-88
2021/12/06 01:18:51;;;;;;;0.13;0.13;;;;;;;6.89;69.48;101432.19;5043629;28;20026;-87
2021/12/06 01:21:28;;;;;;;1.17;1.10;;;;;;;6.89;69.28;101446.28;5041679;28;20094;-89
2021/12/06 01:24:00;;;;;;;0.30;0.30;;;;;;;6.87;69.20;101448.00;5035963;28;20064;-87
2021/12/06 01:29:40;;;;;;;0.80;0.80;;;;;;;6.86;69.59;101454.13;5180427;27;20406;-86
2021/12/06 01:32:14;;;;;;;0.13;0.13;;;;;;;6.92;69.43;101453.31;5167205;27;20547;-86
2021/12/06 01:40:13;;;;;;;0.95;0.95;;;;;;;6.91;69.26;101455.03;5150570;27;20092;-87
2021/12/06 01:42:39;;;;;;;0.17;0.17;;;;;;;6.93;69.44;101455.94;5151612;27;20504;-87
2021/12/06 01:45:07;;;;;;;2.03;0.98;;;;;;;6.90;69.36;101470.84;5148240;27;20114;-87
2021/12/06 01:47:36;;;;;;;0.20;0.20;;;;;;;6.95;69.05;101463.84;5151682;27;20030;-87
2021/12/06 01:52:55;;;;;;;0.10;0.10;;;;;;;7.00;69.08;101471.78;5114371;27;20472;-86
2021/12/06 01:55:25;;;;;;;0.15;0.15;;;;;;;7.03;69.46;101472.69;5098726;28;20032;-86
2021/12/06 01:57:53;;;;;;;0.55;0.55;;;;;;;7.05;69.38;101478.84;5097866;28;20356;-86
2021/12/06 02:00:31;;;;;;;0.17;0.17;;;;;;;7.12;69.00;101483.25;5099017;28;20044;-87
2021/12/06 02:02:59;;;;;;;2.67;2.47;;;;;;;7.11;69.50;101486.75;5091242;28;20039;-87
2021/12/06 02:05:25;;;;;;;0.30;0.30;;;;;;;7.14;69.02;101480.66;5100287;28;20024;-87
2021/12/06 02:07:52;;;;;;;0.10;0.10;;;;;;;7.18;69.47;101481.50;5101318;28;20038;-87
2021/12/06 02:10:19;;;;;;;0.40;0.40;;;;;;;7.21;69.17;101468.34;5100597;28;20034;-87
2021/12/06 02:12:47;;;;;;;1.75;1.65;;;;;;;7.21;69.48;101481.53;5097024;28;20387;-87
2021/12/06 02:15:32;;;;;;;0.22;0.22;;;;;;;7.21;68.86;101471.00;5098279;28;20498;-86
2021/12/06 02:18:07;;;;;;;0.30;0.30;;;;;;;7.18;69.33;101463.97;5091858;28;20054;-87
2021/12/06 02:20:42;;;;;;;1.23;1.20;;;;;;;7.20;69.29;101464.84;5092989;28;20458;-87
2021/12/06 02:23:09;;;;;;;0.10;0.10;;;;;;;7.21;68.71;101465.72;5099690;28;20178;-87
2021/12/06 02:25:35;;;;;;;0.10;0.10;;;;;;;7.20;69.17;101467.50;5093774;28;20093;-87
2021/12/06 02:28:02;;;;;;;0.10;0.10;;;;;;;7.20;68.74;101463.97;5101456;28;20394;-87
2021/12/06 02:30:28;;;;;;;0.30;0.30;;;;;;;7.21;68.93;101465.72;5094911;28;20035;-86
2021/12/06 02:32:54;;;;;;;0.35;0.35;;;;;;;7.20;68.76;101463.97;5091157;28;20425;-87
2021/12/06 02:35:23;;;;;;;1.20;0.77;;;;;;;7.22;69.16;101467.50;5099528;28;20039;-87
2021/12/06 02:37:50;;;;;;;0.20;0.20;;;;;;;7.21;68.90;101463.09;5103409;28;20028;-87
2021/12/06 02:40:23;;;;;;;0.35;0.35;;;;;;;7.22;68.85;101464.84;5091266;28;20805;-87
2021/12/06 02:42:50;;;;;;;0.20;0.20;;;;;;;7.19;68.68;101456.91;5096955;28;20481;-87
2021/12/06 02:45:19;;;;;;;0.20;0.20;;;;;;;7.18;68.73;101456.06;5091965;28;20038;-87
2021/12/06 02:47:52;;;;;;;3.60;1.23;;;;;;;7.13;68.65;101457.78;5097700;28;20050;-87
2021/12/06 02:50:23;;;;;;;0.45;0.45;;;;;;;7.03;68.71;101456.88;5100011;28;20039;-87
2021/12/06 02:52:50;;;;;;;0.10;0.10;;;;;;;6.99;68.78;101454.19;5094712;28;20605;-87
2021/12/06 02:55:30;;;;;;;0.38;0.38;;;;;;;6.97;68.57;101459.47;5098205;28;20032;-87
2021/12/06 02:58:01;;;;;;;0.13;0.13;;;;;;;6.98;68.79;101458.59;5097073;28;20061;-87
2021/12/06 03:00:28;;;;;;;0.20;0.20;;;;;;;6.99;68.93;101464.75;5089083;28;20016;-87
2021/12/06 03:02:54;;;;;;;0.85;0.85;;;;;;;6.99;68.71;101459.47;5082974;28;20028;-87
2021/12/06 03:05:21;;;;;;;0.25;0.25;;;;;;;6.99;68.88;101464.75;5080770;28;20025;-87
2021/12/06 03:07:52;;;;;;;0.10;0.10;;;;;;;7.00;68.85;101467.38;5080608;28;20040;-86
2021/12/06 03:10:18;;;;;;;0.20;0.20;;;;;;;6.99;69.03;101465.63;5077595;28;20032;-87
2021/12/06 03:12:45;;;;;;;0.20;0.20;;;;;;;7.01;69.02;101474.41;5084208;28;20119;-87
2021/12/06 03:15:11;;;;;;;0.10;0.10;;;;;;;7.00;68.80;101475.28;5087451;28;20028;-87
2021/12/06 03:17:37;;;;;;;0.20;0.20;;;;;;;6.99;68.80;101468.28;5086641;28;20035;-86
2021/12/06 03:20:09;;;;;;;0.20;0.20;;;;;;;6.97;68.46;101468.25;5085050;28;20063;-87
2021/12/06 03:22:35;;;;;;;0.20;0.20;;;;;;;6.96;68.56;101465.59;5075886;28;20040;-87
2021/12/06 03:25:08;;;;;;;0.10;0.10;;;;;;;6.95;68.85;101463.84;5085138;28;20036;-87
2021/12/06 03:27:35;;;;;;;0.10;0.10;;;;;;;6.91;68.75;101472.63;5075123;28;20024;-87
2021/12/06 03:30:02;;;;;;;0.20;0.20;;;;;;;6.90;68.31;101476.13;5083090;28;20028;-87
2021/12/06 03:32:29;;;;;;;0.65;0.65;;;;;;;6.89;68.95;101483.16;5077246;28;20483;-86
2021/12/06 03:34:55;;;;;;;0.45;0.45;;;;;;;6.88;68.67;101478.75;5078500;28;20032;-86
2021/12/06 03:37:21;;;;;;;0.10;0.10;;;;;;;6.87;69.00;101481.38;5076134;28;20020;-86
2021/12/06 03:39:48;;;;;;;0.15;0.15;;;;;;;6.87;68.85;101481.38;5083291;28;20032;-87
2021/12/06 03:42:18;;;;;;;0.60;0.60;;;;;;;6.85;68.58;101477.84;5079936;28;20492;-87
2021/12/06 03:44:44;;;;;;;0.20;0.20;;;;;;;6.81;68.62;101476.94;5075387;28;20166;-87
2021/12/06 03:47:17;;;;;;;0.20;0.20;;;;;;;6.78;68.37;101475.19;5075238;28;20021;-87
2021/12/06 03:49:43;;;;;;;0.20;0.20;;;;;;;6.71;68.35;101475.13;5082030;28;20032;-87
2021/12/06 03:52:11;;;;;;;0.10;0.10;;;;;;;6.63;68.23;101467.19;5084161;28;20111;-87
2021/12/06 03:54:37;;;;;;;0.10;0.10;;;;;;;6.55;67.88;101469.75;5080089;28;20036;-88
2021/12/06 03:57:04;;;;;;;0.10;0.10;;;;;;;6.48;67.70;101479.38;5088049;28;20498;-86
2021/12/06 03:59:31;;;;;;;0.10;0.10;;;;;;;6.39;67.77;101478.41;5086295;28;20043;-87
2021/12/06 04:01:57;;;;;;;0.10;0.10;;;;;;;6.32;67.63;101478.38;5086913;28;20382;-86
2021/12/06 04:04:23;;;;;;;0.25;0.25;;;;;;;6.24;67.64;101481.81;5087807;28;20031;-86
2021/12/06 04:06:51;;;;;;;0.10;0.10;;;;;;;6.17;67.41;101483.53;5090628;28;20032;-87
2021/12/06 04:09:18;;;;;;;0.20;0.20;;;;;;;6.11;67.41;101489.59;5080745;28;20032;-87
2021/12/06 04:11:45;;;;;;;0.13;0.13;;;;;;;6.05;67.56;101502.69;5081899;28;20040;-87
2021/12/06 04:14:11;;;;;;;0.15;0.15;;;;;;;6.04;67.29;101507.97;5078510;28;20036;-87
2021/12/06 04:16:38;;;;;;;1.45;1.20;;;;;;;6.01;67.64;101500.91;5074388;28;20025;-85
2021/12/06 04:19:06;;;;;;;0.10;0.10;;;;;;;5.96;67.71;101499.97;5079240;28;20418;-87
2021/12/06 04:21:34;;;;;;;0.63;0.63;;;;;;;5.94;67.52;101501.69;5086032;28;20479;-86
2021/12/06 04:24:01;;;;;;;0.10;0.10;;;;;;;5.91;67.58;101496.41;5087146;28;20062;-86
2021/12/06 04:26:27;;;;;;;0.25;0.25;;;;;;;5.93;67.88;101492.03;5077501;28;20436;-88
2021/12/06 04:29:01;;;;;;;0.20;0.20;;;;;;;5.96;67.96;101494.69;5084879;28;20554;-87
2021/12/06 04:31:31;;;;;;;0.10;0.10;;;;;;;5.98;68.05;101499.16;5089319;28;20087;-87
2021/12/06 04:33:58;;;;;;;0.17;0.17;;;;;;;5.99;68.34;101506.19;5086187;28;20063;-87
2021/12/06 04:36:25;;;;;;;0.20;0.20;;;;;;;6.01;68.31;101503.56;5086829;28;20386;-88
2021/12/06 04:38:51;;;;;;;0.15;0.15;;;;;;;6.06;68.45;101506.22;5080776;28;20028;-87
2021/12/06 04:41:18;;;;;;;0.10;0.10;;;;;;;6.12;68.56;101512.41;5086973;28;20032;-87
2021/12/06 04:43:47;;;;;;;0.30;0.30;;;;;;;6.18;68.68;101513.34;5081418;28;20041;-88
2021/12/06 04:46:13;;;;;;;0.32;0.32;;;;;;;6.25;68.82;101512.53;5077168;28;20029;-87
2021/12/06 04:48:40;;;;;;;0.10;0.10;;;;;;;6.30;68.92;101516.09;5086174;28;20059;-87
2021/12/06 04:51:07;;;;;;;0.65;0.65;;;;;;;6.35;68.93;101514.38;5086103;28;20410;-87
2021/12/06 04:53:36;;;;;;;0.20;0.20;;;;;;;6.41;68.88;101518.81;5077448;28;20063;-87
2021/12/06 05:01:43;;;;;;;0.80;0.80;;;;;;;6.59;69.04;101503.16;5082412;27;20491;-87
2021/12/06 05:04:15;;;;;;;0.55;0.55;;;;;;;6.66;69.15;101497.94;5041767;28;20026;-87
2021/12/06 05:06:44;;;;;;;0.60;0.60;;;;;;;6.70;69.32;101484.78;5041117;28;20056;-87
2021/12/06 05:09:16;;;;;;;0.20;0.20;;;;;;;6.73;69.37;101491.81;5037720;28;20033;-86
2021/12/06 05:11:44;;;;;;;0.20;0.20;;;;;;;6.75;69.49;101497.97;5037173;28;20122;-86
2021/12/06 05:14:11;;;;;;;0.28;0.28;;;;;;;6.71;69.35;101491.81;5029585;28;20480;-87
2021/12/06 05:16:37;;;;;;;0.35;0.35;;;;;;;6.66;69.37;101490.91;5029829;28;20461;-86
2021/12/06 05:19:05;;;;;;;0.15;0.15;;;;;;;6.71;69.15;101497.06;5029972;28;20022;-86
2021/12/06 05:21:32;;;;;;;0.30;0.30;;;;;;;6.77;69.45;101497.13;5040197;28;20472;-86
2021/12/06 05:23:59;;;;;;;0.30;0.30;;;;;;;6.79;69.46;101499.75;5040820;28;20031;-87
2021/12/06 05:26:25;;;;;;;0.65;0.65;;;;;;;6.82;69.44;101509.41;5042415;28;20396;-87
2021/12/06 05:28:56;;;;;;;0.20;0.20;;;;;;;6.83;69.58;101511.19;5031167;28;20164;-87
2021/12/06 05:31:23;;;;;;;2.30;0.95;;;;;;;6.85;69.39;101514.72;5031063;28;20030;-86
2021/12/06 05:33:54;;;;;;;0.73;0.73;;;;;;;6.87;69.44;101515.63;5056503;22;20132;-81
2021/12/06 05:36:22;;;;;;;1.55;1.55;;;;;;;6.90;69.25;101515.63;5049816;28;20033;-77
2021/12/06 05:38:52;;;;;;;2.78;2.53;;;;;;;6.91;69.26;101510.38;5049636;28;20037;-77
2021/12/06 05:41:18;;;;;;;0.38;0.38;;;;;;;6.89;69.36;101512.13;5041424;28;20041;-77
2021/12/06 05:43:46;;;;;;;1.48;0.60;;;;;;;6.93;69.08;101513.03;5041349;28;20037;-74
2021/12/06 05:46:13;;;;;;;0.20;0.20;;;;;;;6.97;69.37;101522.69;5039001;28;20099;-74
2021/12/06 05:48:39;;;;;;;2.40;2.05;;;;;;;6.97;69.20;101520.94;5031551;28;20034;-77
2021/12/06 05:51:05;;;;;;;0.20;0.20;;;;;;;6.97;68.74;101525.34;5044180;28;20029;-79
2021/12/06 05:53:31;;;;;;;0.20;0.20;;;;;;;6.99;69.01;101523.59;5048050;28;20127;-78
2021/12/06 05:55:57;;;;;;;0.30;0.30;;;;;;;6.97;68.98;101530.59;5044776;28;20044;-76
2021/12/06 05:58:27;;;;;;;0.57;0.57;;;;;;;7.00;69.16;101530.59;5038605;28;20038;-81
2021/12/06 06:00:55;;;;;;;0.63;0.63;;;;;;;6.95;68.93;101532.34;5031293;28;20477;-83
2021/12/06 06:03:22;;;;;;;3.70;1.05;;;;;;;6.98;68.92;101527.09;5037815;28;20452;-78
2021/12/06 06:05:49;;;;;;;0.10;0.10;;;;;;;7.00;68.94;101521.84;5036517;28;20431;-82
2021/12/06 06:08:16;;;;;;;0.10;0.10;;;;;;;6.94;68.90;101528.84;5038992;28;20038;-85
2021/12/06 06:10:45;;;;;;;0.10;0.10;;;;;;;6.99;69.08;101534.16;5041808;28;20029;-82
2021/12/06 06:13:12;;;;;;;0.47;0.47;;;;;;;7.05;69.10;101528.00;5024793;28;20121;-84
2021/12/06 06:15:38;;;;;;;0.22;0.22;;;;;;;7.02;68.85;101528.00;5050546;28;20041;-82
2021/12/06 06:18:06;;;;;;;1.13;1.10;;;;;;;7.06;69.22;101529.78;5025089;28;20085;-82
2021/12/06 06:20:42;;;;;;;0.10;0.10;;;;;;;7.07;68.71;101521.88;5029721;28;20174;-83
2021/12/06 06:23:09;;;;;;;0.20;0.20;;;;;;;7.06;68.67;101522.75;5019806;28;20473;-82
2021/12/06 06:25:36;;;;;;;0.20;0.20;;;;;;;7.09;68.67;101530.69;5024591;28;20393;-83
2021/12/06 06:28:03;;;;;;;0.30;0.30;;;;;;;7.12;69.00;101533.31;5025257;28;20092;-80
2021/12/06 06:30:29;;;;;;;0.40;0.40;;;;;;;7.10;68.69;101535.09;5026900;28;20037;-83
2021/12/06 06:32:56;;;;;;;0.30;0.30;;;;;;;7.16;68.73;101538.63;5024968;28;20068;-82
2021/12/06 06:35:22;;;;;;;0.30;0.30;;;;;;;7.13;68.73;101540.34;5033065;28;20029;-82
2021/12/06 06:37:49;;;;;;;0.10;0.10;;;;;;;7.13;68.41;101542.13;5022095;28;20038;-78
2021/12/06 06:40:15;;;;;;;0.10;0.10;;;;;;;7.05;68.25;101538.56;5031809;28;20559;-79
2021/12/06 06:42:42;;;;;;;0.10;0.10;;;;;;;7.05;68.18;101534.19;5020011;28;20477;-80
2021/12/06 06:45:10;;;;;;;0.20;0.20;;;;;;;7.03;68.20;101535.00;5035013;28;20025;-78
2021/12/06 06:47:37;;;;;;;0.70;0.70;;;;;;;7.02;68.27;101549.97;5035040;28;20496;-79
2021/12/06 06:50:04;;;;;;;0.73;0.73;;;;;;;6.90;68.53;101552.50;5027494;28;20069;-78
2021/12/06 06:52:30;;;;;;;1.33;1.23;;;;;;;6.94;68.49;101552.56;5018845;28;20045;-81
2021/12/06 06:54:59;;;;;;;0.10;0.10;;;;;;;6.97;68.30;101546.41;5028742;28;20480;-80
2021/12/06 06:57:25;;;;;;;0.10;0.10;;;;;;;6.92;68.42;101549.00;5029059;28;20080;-80
2021/12/06 06:59:53;;;;;;;0.10;0.10;;;;;;;6.95;68.56;101553.41;5031388;28;20037;-80
2021/12/06 07:02:19;;;;;;;0.20;0.20;;;;;;;6.98;68.26;101553.47;5029127;28;20033;-81
2021/12/06 07:04:52;;;;;;;0.60;0.60;;;;;;;6.99;68.86;101544.69;5062642;22;20033;-88
2021/12/06 07:07:22;;;;;;;1.52;1.52;;;;;;;6.97;68.68;101554.31;5048444;28;20029;-87
2021/12/06 07:09:49;;;;;;;1.80;1.75;;;;;;;6.94;68.45;101562.19;5051812;28;20116;-76
2021/12/06 07:12:17;;;;;;;0.80;0.80;;;;;;;6.92;68.31;101558.69;5047928;28;20029;-88
2021/12/06 07:14:45;;;;;;;0.20;0.20;;;;;;;6.76;68.56;101555.91;5037545;28;20472;-87
2021/12/06 07:17:13;;;;;;;1.63;1.60;;;;;;;6.70;68.82;101547.97;5046022;28;20029;-86
2021/12/06 07:19:40;;;;;;;0.32;0.32;;;;;;;6.72;68.88;101548.88;5040237;28;20057;-84
2021/12/06 07:22:08;;;;;;;1.38;1.05;;;;;;;6.71;68.93;101543.59;5045268;28;20468;-88
2021/12/06 07:24:37;;;;;;;0.20;0.20;;;;;;;6.70;69.01;101547.97;5034928;28;20490;-85
2021/12/06 07:27:04;;;;;;;0.30;0.30;;;;;;;6.72;69.10;101543.63;5037974;28;20044;-83
2021/12/06 07:29:35;;;;;;;0.20;0.20;;;;;;;6.69;69.21;101535.72;5037814;28;20033;-90
2021/12/06 07:32:06;;;;;;;0.30;0.30;;;;;;;6.72;68.93;101535.72;5045674;28;20383;-91
2021/12/06 07:34:36;;;;;;;0.20;0.20;;;;;;;6.72;68.89;101534.84;5038770;28;20477;-91
2021/12/06 07:37:09;;;;;;;0.10;0.10;;;;;;;6.70;68.92;101540.06;5035385;28;20030;-91
2021/12/06 07:39:36;;;;;;;0.20;0.20;;;;;;;6.64;69.40;101537.41;5017832;28;20040;-89
2021/12/06 07:42:02;;;;;;;2.13;1.45;;;;;;;6.64;68.89;101535.66;5038699;28;20392;-87
2021/12/06 07:44:28;;;;;;;0.10;0.10;;;;;;;6.66;69.21;101526.91;5037774;28;20041;-85
2021/12/06 07:46:54;;;;;;;0.73;0.73;;;;;;;6.58;69.40;101525.09;5041198;28;20100;-91
2021/12/06 07:49:22;;;;;;;0.20;0.20;;;;;;;6.66;69.09;101519.00;5039025;28;20037;-93
2021/12/06 07:51:49;;;;;;;0.30;0.30;;;;;;;6.64;69.11;101513.69;5033038;28;20033;-91
2021/12/06 07:54:16;;;;;;;0.20;0.20;;;;;;;6.66;69.37;101530.41;5041701;28;20033;-91
2021/12/06 07:56:48;;;;;;;0.10;0.10;;;;;;;6.70;69.36;101528.69;5032852;28;20060;-94
2021/12/06 07:59:22;;;;;;;0.22;0.22;;;;;;;6.63;69.24;101530.41;5032358;28;20041;-92
2021/12/06 08:01:51;;;;;;;2.38;2.17;;;;;;;6.58;69.40;101538.25;5028347;28;20033;-79
2021/12/06 08:04:17;;;;;;;0.32;0.32;;;;;;;6.58;69.28;101542.63;5030792;28;20087;-89
2021/12/06 08:06:44;;;;;;;1.27;1.08;;;;;;;6.44;69.32;101543.41;5038333;28;20029;-90
2021/12/06 08:09:14;;;;;;;0.70;0.70;;;;;;;6.47;69.33;101540.78;5039208;28;20038;-82
2021/12/06 08:11:59;;;;;;;1.38;1.27;;;;;;;6.37;69.54;101528.44;5033717;28;20116;-84
2021/12/06 08:14:25;;;;;;;0.65;0.65;;;;;;;6.48;69.83;101526.75;5030276;28;20113;-90
2021/12/06 08:16:53;;;;;;;0.63;0.63;;;;;;;6.44;69.71;101530.25;5044308;28;20062;-89
2021/12/06 08:19:19;;;;;;;0.20;0.20;;;;;;;6.47;69.77;101532.88;5032355;28;20038;-88
2021/12/06 08:21:45;;;;;;;0.30;0.30;;;;;;;6.54;69.65;101543.47;5030140;28;20104;-90
2021/12/06 08:24:12;;;;;;;0.20;0.20;;;;;;;6.48;70.09;101546.94;5033739;28;20080;-88
2021/12/06 08:26:41;;;;;;;0.20;0.20;;;;;;;6.55;69.79;101553.13;5032293;28;20029;-90
2021/12/06 08:29:15;;;;;;;3.40;1.10;;;;;;;6.59;69.80;101554.91;5025589;28;20052;-90
2021/12/06 08:31:43;;;;;;;0.60;0.60;;;;;;;6.58;69.97;101554.03;5027706;28;20373;-89
2021/12/06 08:34:09;;;;;;;0.20;0.20;;;;;;;6.60;70.04;101561.94;5037638;28;20117;-90
2021/12/06 08:36:35;;;;;;;0.40;0.40;;;;;;;6.62;69.91;101565.50;5033790;28;20483;-91
2021/12/06 08:39:04;;;;;;;0.57;0.57;;;;;;;6.66;69.79;101561.13;5039126;28;20033;-85
2021/12/06 08:41:32;;;;;;;0.25;0.25;;;;;;;6.62;69.51;101568.13;5034101;28;20112;-90
2021/12/06 08:44:01;;;;;;;1.50;1.50;;;;;;;6.59;69.54;101565.44;5034667;28;20025;-92
2021/12/06 08:46:33;;;;;;;0.55;0.55;;;;;;;6.61;69.58;101574.25;5032675;28;20075;-91
2021/12/06 08:49:05;;;;;;;1.30;1.30;;;;;;;6.57;69.11;101567.22;5035103;28;20136;-92
2021/12/06 08:51:36;;;;;;;8.00;1.07;;;;;;;6.60;69.61;101567.22;5037981;28;20061;-92
2021/12/06 08:54:07;;;;;;;0.37;0.37;;;;;;;6.55;69.44;101568.94;5040735;28;20324;-91
2021/12/06 08:56:40;;;;;;;1.50;1.40;;;;;;;6.64;69.31;101567.25;5027217;28;20034;-93
2021/12/06 08:59:08;;;;;;;1.23;0.77;;;;;;;6.60;69.48;101564.59;5021791;28;20030;-93
2021/12/06 09:01:36;;;;;;;3.75;1.45;;;;;;;6.59;69.37;101570.72;5032825;28;20038;-93
2021/12/06 09:04:03;;;;;;;0.43;0.43;;;;;;;6.56;69.38;101561.03;5036981;28;20159;-85
2021/12/06 09:06:29;;;;;;;0.20;0.20;;;;;;;6.53;69.44;101555.78;5034908;28;20036;-93
2021/12/06 09:08:56;;;;;;;0.17;0.17;;;;;;;6.54;69.23;101556.63;5036110;28;20033;-94
2021/12/06 09:11:22;;;;;;;0.20;0.20;;;;;;;6.62;69.50;101557.59;5035220;28;20058;-94
2021/12/06 09:13:49;;;;;;;1.05;1.02;;;;;;;6.66;69.49;101551.47;5033695;28;20038;-92
2021/12/06 09:16:16;;;;;;;1.60;1.55;;;;;;;6.65;69.31;101552.34;5033091;28;20127;-94
2021/12/06 09:18:45;;;;;;;0.65;0.65;;;;;;;6.66;68.89;101546.19;5032157;28;20488;-84
2021/12/06 09:21:17;;;;;;;0.20;0.20;;;;;;;6.75;69.03;101540.13;5023257;28;20037;-85
2021/12/06 09:23:45;;;;;;;0.20;0.20;;;;;;;6.83;68.56;101540.16;5029999;28;20037;-83
2021/12/06 09:26:12;;;;;;;0.80;0.80;;;;;;;6.80;68.90;101549.84;5033153;28;20021;-84
2021/12/06 09:28:38;;;;;;;0.20;0.20;;;;;;;6.85;68.72;101541.06;5033633;28;20029;-78
2021/12/06 09:31:07;;;;;;;0.93;0.82;;;;;;;6.88;68.63;101544.59;5038464;28;20044;-82
2021/12/06 09:33:39;;;;;;;2.70;2.55;;;;;;;6.93;68.59;101542.00;5040207;28;20029;-78
2021/12/06 09:36:09;;;;;;;1.30;1.30;;;;;;;6.93;68.54;101536.75;5038262;28;20033;-91
2021/12/06 09:38:59;;;;;;;3.22;2.92;;;;;;;7.01;68.27;101536.78;5033159;28;20296;-78
2021/12/06 09:41:27;;;;;;;0.20;0.20;;;;;;;7.01;68.26;101537.66;5036214;28;20038;-84
2021/12/06 09:43:58;;;;;;;1.05;0.95;;;;;;;6.97;68.01;101544.66;5038596;28;20037;-90
2021/12/06 09:46:25;;;;;;;0.20;0.20;;;;;;;7.05;67.99;101555.25;5043423;28;20033;-87
2021/12/06 09:48:54;;;;;;;0.55;0.55;;;;;;;7.10;68.17;101558.81;5041499;28;20492;-87
2021/12/06 09:51:25;;;;;;;1.10;1.10;;;;;;;7.05;68.32;101555.25;5046965;28;20449;-85
2021/12/06 09:53:54;;;;;;;0.40;0.40;;;;;;;7.06;67.48;101551.72;5039912;28;20037;-93
2021/12/06 09:56:27;;;;;;;1.75;1.65;;;;;;;7.18;67.78;101545.66;5034677;28;20033;-88
2021/12/06 09:58:55;;;;;;;2.22;1.17;;;;;;;7.10;67.72;101552.63;5035705;28;20112;-86
2021/12/06 10:01:25;;;;;;;0.82;0.82;;;;;;;7.20;67.57;101553.56;5035934;28;20087;-88
2021/12/06 10:03:54;;;;;;;0.30;0.30;;;;;;;7.19;67.69;101549.16;5036899;28;20029;-88
2021/12/06 10:06:22;;;;;;;0.50;0.50;;;;;;;7.19;67.40;101551.81;5035822;28;20033;-80
2021/12/06 10:08:50;;;;;;;0.73;0.73;;;;;;;7.23;67.18;101538.66;5035398;28;20083;-83
2021/12/06 10:11:19;;;;;;;1.70;1.02;;;;;;;7.32;67.03;101537.81;5034291;28;20119;-87
2021/12/06 10:13:47;;;;;;;3.10;2.47;;;;;;;7.36;66.95;101539.59;5034210;28;20094;-87
2021/12/06 10:16:14;;;;;;;0.10;0.10;;;;;;;7.37;66.88;101529.94;5035334;28;20036;-89
2021/12/06 10:18:41;;;;;;;1.17;1.17;;;;;;;7.30;66.47;101521.09;5034866;28;20025;-88
2021/12/06 10:21:09;;;;;;;0.20;0.20;;;;;;;7.33;66.35;101521.13;5035249;28;20029;-87
2021/12/06 10:23:38;;;;;;;0.98;0.98;;;;;;;7.38;66.70;101510.63;5035710;28;20037;-87
2021/12/06 10:26:08;;;;;;;0.30;0.30;;;;;;;7.43;66.48;101504.47;5035863;28;20018;-88
2021/12/06 10:28:35;;;;;;;2.35;2.25;;;;;;;7.44;66.05;101495.69;5034531;28;20091;-87
2021/12/06 10:31:06;;;;;;;1.45;1.45;;;;;;;7.50;66.22;101494.84;5036046;28;20037;-88
2021/12/06 10:33:35;;;;;;;0.30;0.30;;;;;;;7.53;66.17;101492.19;5033089;28;20017;-88
2021/12/06 10:36:07;;;;;;;0.10;0.10;;;;;;;7.51;65.74;101485.16;5036222;28;20034;-89
2021/12/06 10:38:38;;;;;;;0.85;0.85;;;;;;;7.56;65.54;101472.88;5036399;28;20136;-89
2021/12/06 10:41:09;;;;;;;0.17;0.17;;;;;;;7.62;65.70;101467.59;5035528;28;20392;-89
2021/12/06 10:43:36;;;;;;;0.52;0.52;;;;;;;7.65;64.99;101453.53;5035450;28;20115;-87
2021/12/06 10:46:05;;;;;;;1.85;1.75;;;;;;;7.67;64.96;101443.88;5034700;28;20034;-88
2021/12/06 10:48:34;;;;;;;0.20;0.20;;;;;;;7.69;64.89;101437.72;5035970;28;20060;-89
2021/12/06 10:51:05;;;;;;;1.27;1.17;;;;;;;7.71;64.61;101436.00;5035223;28;20566;-89
2021/12/06 10:53:39;;;;;;;0.63;0.63;;;;;;;7.75;64.39;101432.47;5035151;28;20029;-84
2021/12/06 10:56:15;;;;;;;0.90;0.90;;;;;;;7.75;63.99;101419.28;5036084;28;20064;-89
2021/12/06 10:58:44;;;;;;;0.43;0.43;;;;;;;7.85;64.57;101421.91;5034649;28;20167;-88
2021/12/06 11:01:13;;;;;;;0.95;0.95;;;;;;;7.88;63.79;101411.38;5034952;28;20018;-89
2021/12/06 11:03:45;;;;;;;0.10;0.10;;;;;;;7.91;63.31;101409.63;5034109;28;20025;-88
2021/12/06 11:06:25;;;;;;;1.85;1.75;;;;;;;7.89;62.37;101406.09;5035528;28;20087;-88
2021/12/06 11:08:56;;;;;;;0.20;0.20;;;;;;;7.85;63.05;101419.28;5036015;28;20025;-89
2021/12/06 11:11:27;;;;;;;1.65;1.05;;;;;;;7.76;62.84;101423.69;5035985;28;20033;-87
2021/12/06 11:13:58;;;;;;;0.82;0.82;;;;;;;7.81;63.47;101413.09;5031917;28;20480;-89
2021/12/06 11:16:27;;;;;;;0.95;0.95;;;;;;;7.68;63.65;101406.09;5015745;28;20056;-88
2021/12/06 11:29:51;;;;;;;1.67;1.58;;;;;;;7.48;63.94;101384.94;5065675;28;20921;-87
2021/12/06 11:32:23;;;;;;;0.82;0.82;;;;;;;7.49;62.79;101381.44;5048695;28;20056;-89
2021/12/06 11:35:13;;;;;;;2.90;2.60;;;;;;;7.57;63.13;101369.16;5045719;28;20749;-89
2021/12/06 11:37:43;;;;;;;0.32;0.32;;;;;;;7.50;63.41;101372.66;5042616;28;20038;-89
2021/12/06 11:40:28;;;;;;;0.40;0.40;;;;;;;7.41;63.46;101366.50;5041969;28;20488;-88
2021/12/06 11:43:00;;;;;;;2.92;1.45;;;;;;;7.44;63.11;101355.94;5048872;28;20051;-87
2021/12/06 11:51:18;;;;;;;1.67;1.58;;;;;;;7.37;64.30;101335.72;5084722;27;20933;-80
2021/12/06 11:53:51;;;;;;;0.20;0.20;;;;;;;7.49;64.06;101339.25;5078350;28;20033;-90
2021/12/06 11:59:01;;;;;;;5.88;3.60;;;;;;;7.45;63.99;101328.72;4996860;27;2227603;-88
2021/12/06 12:04:15;;;;;;;1.75;0.90;;;;;;;7.90;62.92;101315.50;5047082;27;20442;-90
2021/12/06 12:09:25;;;;;;;0.32;0.32;;;;;;;7.91;62.98;101308.47;5073881;27;20536;-88
2021/12/06 12:12:10;;;;;;;0.40;0.40;;;;;;;7.89;63.09;101304.97;5076613;28;20537;-89
2021/12/06 12:17:25;;;;;;;0.82;0.82;;;;;;;7.65;63.00;101301.47;5076089;28;20981;-84
2021/12/06 12:19:54;;;;;;;3.08;2.88;;;;;;;7.61;62.39;101302.31;5064832;28;20034;-85
2021/12/06 12:22:23;;;;;;;0.40;0.40;;;;;;;7.50;62.12;101305.00;5058145;28;20111;-87
2021/12/06 12:24:54;;;;;;;0.50;0.50;;;;;;;7.42;62.62;101307.59;5042760;28;20382;-86
2021/12/06 12:27:36;;;;;;;0.20;0.20;;;;;;;7.42;62.17;101297.06;5041946;28;20100;-88